Flight Track Log - Related Links

Times and Time Zones

All times are in EDT time to prevent confusion due to time zone crossing. See the SFH533 flight status page for this flight to view local times or setup timezone preferences in your user account.

Time Position Orientation Groundspeed Altitude Reporting Facility
EDT Latitude Longitude Course Direction KTS MPH feet Rate Location/Type
Fri 01:39:19 PM 29.0717 -80.9183 67° East 137 158 1,500  Level Jacksonville Center
Fri 01:40:19 PM 29.1047 -80.8939 33° Northeast 189 217 3,200 2,033 Climbing Jacksonville Center
Fri 01:41:20 PM 29.1553 -80.9214 33° Northeast 192 221 5,600 2,213 Climbing Jacksonville Center
Fri 01:42:21 PM 29.2036 -80.9467 335° Northwest 191 220 7,700 2,033 Climbing Jacksonville Center
Fri 01:43:21 PM 29.2522 -80.9719 336° Northwest 193 222 9,700 1,467 Climbing Jacksonville Center
Fri 01:44:36 PM 29.3133 -81.0231 324° Northwest 219 252 11,000 574 Climbing Jacksonville Center
Fri 01:45:37 PM 29.3725 -81.0647 328° Northwest 253 291 11,000 744 Level Jacksonville Center
Fri 01:46:37 PM 29.4378 -81.1161 326° Northwest 284 327 12,500 1,850 Climbing Jacksonville Center
Fri 01:47:37 PM 29.4803 -81.1533 323° Northwest 232 267 14,700 1,950 Climbing Jacksonville Center
Fri 01:48:37 PM 29.5267 -81.1931 323° Northwest 218 251 16,400 1,513 Climbing Jacksonville Center
Fri 01:49:36 PM 29.5731 -81.2353 322° Northwest 207 238 17,700 1,150 Climbing Jacksonville Center
Fri 01:50:37 PM 29.6256 -81.2631 335° Northwest 207 238 18,700 1,150 Climbing Jacksonville Center
Fri 01:51:36 PM 29.6825 -81.2981 332° Northwest 218 251 20,000 1,261 Climbing Jacksonville Center
Fri 01:52:36 PM 29.7372 -81.3356 329° Northwest 223 257 21,200 1,150 Climbing Jacksonville Center
Fri 01:53:36 PM 29.7919 -81.3706 331° Northwest 228 262 22,300 1,091 Climbing Jacksonville Center
Fri 01:54:37 PM 29.8508 -81.4056 333° Northwest 233 268 23,400 1,050 Climbing Jacksonville Center
Fri 01:55:36 PM 29.9158 -81.4381 337° Northwest 240 276 24,400 958 Climbing Jacksonville Center
Fri 01:56:36 PM 29.9808 -81.4706 337° Northwest 250 288 25,300 942 Climbing Jacksonville Center
Fri 01:57:37 PM 30.0500 -81.4983 341° North 255 293 26,300 850 Climbing Jacksonville Center
Fri 01:58:36 PM 30.1214 -81.5261 341° North 261 300 27,000 353 Climbing Jacksonville Center
Fri 01:59:36 PM 30.2011 -81.5564 342° North 279 321 27,000  Level Jacksonville Center
Fri 02:00:37 PM 30.2869 -81.5911 341° North 300 345 27,000  Level Jacksonville Center
Fri 02:01:36 PM 30.3750 -81.6283 340° North 320 368 27,000 403 Level Jacksonville Center
Fri 02:02:36 PM 30.4589 -81.6611 341° North 333 383 27,800 1,240 Climbing Jacksonville Center
Fri 02:03:37 PM 30.5469 -81.7011 339° North 321 369 29,500 1,400 Climbing Jacksonville Center
Fri 02:04:36 PM 30.6225 -81.7289 342° North 300 345 30,600 1,008 Climbing Jacksonville Center
Fri 02:05:36 PM 30.6936 -81.7572 341° North 279 321 31,500 843 Climbing Jacksonville Center
Fri 02:06:37 PM 30.7650 -81.7878 340° North 274 315 32,300 650 Climbing Jacksonville Center
Fri 02:07:36 PM 30.8383 -81.8183 340° North 274 315 32,800 350 Climbing Jacksonville Center
Fri 02:08:37 PM 30.9139 -81.8611 334° Northwest 279 321 33,000 99 Climbing Jacksonville Center
Fri 02:09:37 PM 30.9936 -81.9086 333° Northwest 294 338 33,000  Level Jacksonville Center
Fri 02:10:36 PM 31.0753 -81.9564 333° Northwest 312 359 33,000  Level Jacksonville Center
Fri 02:11:37 PM 31.1592 -82.0064 333° Northwest 334 384 33,000  Level Jacksonville Center
Fri 02:12:37 PM 31.2450 -82.0542 335° Northwest 334 384 33,000  Level Jacksonville Center
Fri 02:13:37 PM 31.3289 -82.1044 333° Northwest 340 391 33,000  Level Jacksonville Center
Fri 02:14:37 PM 31.4147 -82.1525 334° Northwest 333 383 33,000  Level Jacksonville Center
Fri 02:15:37 PM 31.4986 -82.2056 332° Northwest 333 383 33,000  Level Jacksonville Center
Fri 02:16:37 PM 31.5825 -82.2561 333° Northwest 333 383 33,000  Level Jacksonville Center
Fri 02:17:37 PM 31.6600 -82.2969 336° Northwest 333 383 33,000  Level Jacksonville Center
Fri 02:19:44 PM 31.8486 -82.4056 334° Northwest 345 397 33,000  Level Atlanta Center
Fri 02:20:44 PM 31.9325 -82.4556 333° Northwest 345 397 33,000  Level Atlanta Center
Fri 02:21:44 PM 32.0167 -82.5081 332° Northwest 345 397 33,000  Level Atlanta Center
Fri 02:22:44 PM 32.1031 -82.5581 334° Northwest 345 397 33,000 -350 Level Atlanta Center
Fri 02:23:44 PM 32.1892 -82.6081 334° Northwest 345 397 32,300 -1,100 Descending Atlanta Center
Fri 02:24:44 PM 32.2775 -82.6606 333° Northwest 345 397 30,800 -1,450 Descending Atlanta Center
Fri 02:25:44 PM 32.3678 -82.7158 333° Northwest 351 404 29,400 -1,450 Descending Atlanta Center
Fri 02:26:44 PM 32.4600 -82.7686 334° Northwest 356 410 27,900 -1,450 Descending Atlanta Center
Fri 02:27:44 PM 32.5400 -82.8167 333° Northwest 356 410 26,500 -1,450 Descending Atlanta Center
Fri 02:28:44 PM 32.6219 -82.8897 323° Northwest 361 415 25,000 -1,200 Descending Atlanta Center
Fri 02:29:44 PM 32.7106 -82.9772 320° Northwest 371 427 24,100 -500 Descending Atlanta Center
Fri 02:30:44 PM 32.7864 -83.0556 319° Northwest 376 433 24,000 -350 Descending Atlanta Center
Fri 02:31:44 PM 32.8494 -83.1192 320° Northwest 354 407 23,400 -800 Descending Atlanta Center
Fri 02:32:44 PM 32.9250 -83.1975 319° Northwest 354 407 22,400 -1,200 Descending Atlanta Center
Fri 02:33:44 PM 33.0133 -83.2833 321° Northwest 366 421 21,000 -1,550 Descending Atlanta Center
Fri 02:34:44 PM 33.0889 -83.3669 317° Northwest 366 421 19,300 -1,900 Descending Atlanta Center
Fri 02:35:44 PM 33.1686 -83.4456 320° Northwest 371 427 17,200 -2,250 Descending Atlanta Center
Fri 02:36:44 PM 33.2442 -83.5222 320° Northwest 359 413 14,800 -2,150 Descending Atlanta Center
Fri 02:37:44 PM 33.3114 -83.5889 320° Northwest 359 413 12,900 -2,176 Descending Atlanta Center
Fri 02:38:26 PM 33.3667 -83.6500 317° Northwest 342 394 11,100 -1,300 Descending Atlanta TRACON
Fri 02:39:44 PM 33.4494 -83.7175 326° Northwest 321 369 10,300 -1,435 Descending Atlanta Center
Fri 02:40:44 PM 33.5183 -83.7722 326° Northwest 300 345 7,800 -2,850 Descending Atlanta Center
Fri 02:41:44 PM 33.5853 -83.8194 330° Northwest 280 322 4,600 -1,900 Descending Atlanta Center
Fri 02:42:44 PM 33.6458 -83.8692 326° Northwest 273 314 4,000 -300 Descending Atlanta Center
Fri 02:43:44 PM 33.6856 -83.9464 302° West 268 308 4,000 -333 Level Atlanta Center
Fri 02:45:00 PM 33.7398 -84.0475 345° North  Level Estimated
Fri 02:45:44 PM 33.7714 -84.1039 345° North 273 314 3,000  Level Atlanta Center
Fri 02:46:20 PM 33.8000 -84.1500 307° West 267 307 3,000 -250 Level Atlanta TRACON
Fri 02:47:20 PM 33.8167 -84.2167 287° West 221 254 2,600 -200 Descending Atlanta TRACON
Fri 02:48:20 PM 33.8333 -84.2833 287° West 176 203 2,600 -474 Level Atlanta TRACON
Fri 02:49:14 PM 33.8500 -84.3167 301° West 134 154 1,700 -1,000 Descending Atlanta TRACON
Fri 02:51:00 PM 33.8667 -84.3000 220° Southwest  Level FlightAware Approximate
Fri 02:58:00 PM 33.8756 -84.3020 220° Southwest  Level Estimated

Login

Don't have an account? Register now (free) for customized features, flight alerts, and more!